Time;durP1;ratioP1;P1;durP2;ratioP2;P2;SDS_P1;SDS_P2;PMS_P1;PMS_P2;Temp;Humidity;BMP_temperature;BMP_pressure;BME280_temperature;BME280_humidity;BME280_pressure;Samples;Min_cycle;Max_cycle;Signal;HPM_P1;HPM_P2
2022/10/08 00:01:08;;;;;;;3.45;1.98;;;;;;;19.57;48.85;102396.45;1583694;90;21054;-52
2022/10/08 00:03:42;;;;;;;3.37;1.90;;;;;;;19.52;48.65;102395.73;1582337;90;21113;-51
2022/10/08 00:06:25;;;;;;;3.58;2.00;;;;;;;19.47;48.61;102394.11;1581717;89;21545;-51
2022/10/08 00:09:03;;;;;;;3.47;2.50;;;;;;;19.42;48.58;102389.45;1527356;92;21120;-51
2022/10/08 00:11:37;;;;;;;3.05;2.20;;;;;;;19.39;48.77;102392.17;1538722;92;21133;-51
2022/10/08 00:14:04;;;;;;;3.55;2.45;;;;;;;19.36;48.76;102388.33;1608293;89;21135;-51
2022/10/08 00:16:39;;;;;;;3.45;1.90;;;;;;;19.35;48.80;102383.95;1590465;90;21507;-51
2022/10/08 00:19:09;;;;;;;3.77;2.40;;;;;;;19.33;48.75;102382.27;1590419;90;21114;-51
2022/10/08 00:21:38;;;;;;;4.10;2.35;;;;;;;19.30;48.71;102383.22;1580395;90;21122;-51
2022/10/08 00:24:06;;;;;;;2.40;2.10;;;;;;;19.26;48.82;102380.27;1590719;90;21517;-51
2022/10/08 00:26:34;;;;;;;5.15;2.37;;;;;;;19.24;48.82;102375.50;1590578;90;21074;-51
2022/10/08 00:29:04;;;;;;;5.90;3.00;;;;;;;19.22;48.87;102373.36;1587612;90;21131;-51
2022/10/08 00:31:38;;;;;;;3.12;2.12;;;;;;;19.20;48.89;102371.68;1590842;90;21068;-51
2022/10/08 00:34:07;;;;;;;6.10;2.62;;;;;;;19.18;48.89;102370.42;1562393;92;21628;-51
2022/10/08 00:36:37;;;;;;;3.80;2.20;;;;;;;19.17;48.92;102372.63;1562390;91;21086;-51
2022/10/08 00:39:10;;;;;;;3.70;1.87;;;;;;;19.16;48.94;102372.24;1561095;92;21023;-51
2022/10/08 00:41:37;;;;;;;5.37;2.27;;;;;;;19.15;48.91;102377.09;1574996;90;21075;-51
2022/10/08 00:45:00;;;;;;;4.28;2.52;;;;;;;19.15;48.95;102373.14;1576458;90;21520;-51
2022/10/08 00:47:35;;;;;;;2.47;2.10;;;;;;;19.13;48.99;102369.69;1575070;90;21111;-51
2022/10/08 00:50:16;;;;;;;3.25;2.50;;;;;;;19.11;48.99;102366.23;1502673;93;21141;-51
2022/10/08 00:52:54;;;;;;;3.00;2.20;;;;;;;19.11;48.86;102360.09;1502783;93;21121;-50
2022/10/08 00:55:26;;;;;;;6.28;2.10;;;;;;;19.10;48.79;102361.85;1508835;94;21032;-51
2022/10/08 00:57:52;;;;;;;5.90;2.22;;;;;;;19.07;48.84;102351.41;1499928;93;21121;-51
2022/10/08 01:00:23;;;;;;;3.50;2.20;;;;;;;19.04;48.87;102355.94;1500289;93;21077;-51
2022/10/08 01:02:51;;;;;;;5.25;2.20;;;;;;;19.01;48.89;102351.61;1505032;93;21076;-51
2022/10/08 01:05:22;;;;;;;6.08;2.20;;;;;;;18.98;48.89;102350.37;1504637;93;21084;-51
2022/10/08 01:07:55;;;;;;;3.35;2.20;;;;;;;18.95;49.01;102349.16;1466229;96;21115;-51
2022/10/08 01:10:59;;;;;;;2.55;1.75;;;;;;;18.94;48.96;102344.78;1459536;97;21079;-51
2022/10/08 01:13:50;;;;;;;5.00;2.12;;;;;;;18.93;49.04;102349.67;1470601;96;21615;-51
2022/10/08 01:16:55;;;;;;;2.55;1.90;;;;;;;18.93;49.11;102335.61;1461129;97;21097;-51
2022/10/08 01:19:57;;;;;;;4.10;2.47;;;;;;;18.95;49.09;102332.02;1472665;96;21139;-51
2022/10/08 01:22:54;;;;;;;2.90;1.82;;;;;;;18.95;48.96;102341.25;1473152;96;21114;-51
2022/10/08 01:25:38;;;;;;;2.70;1.98;;;;;;;18.92;49.04;102330.78;1472664;95;21125;-51
2022/10/08 01:28:16;;;;;;;2.98;2.00;;;;;;;18.89;49.05;102329.58;1500636;95;21108;-51
2022/10/08 01:30:52;;;;;;;5.08;2.12;;;;;;;18.86;49.03;102328.33;1528415;91;21076;-51
2022/10/08 01:33:50;;;;;;;4.30;1.90;;;;;;;18.83;48.99;102320.53;1457287;97;21152;-51
2022/10/08 01:36:18;;;;;;;3.77;2.27;;;;;;;18.80;49.18;102321.94;1459240;98;21110;-51
2022/10/08 01:38:54;;;;;;;3.25;2.20;;;;;;;18.79;49.43;102320.67;1459546;98;21642;-51
2022/10/08 01:41:23;;;;;;;4.00;2.33;;;;;;;18.80;49.33;102326.34;1455819;98;21085;-51
2022/10/08 01:43:54;;;;;;;2.87;1.82;;;;;;;18.79;49.30;102318.91;1461228;98;21094;-51
2022/10/08 01:46:24;;;;;;;3.12;2.17;;;;;;;18.79;49.29;102320.22;1441934;97;21165;-51
2022/10/08 01:48:52;;;;;;;7.83;2.37;;;;;;;18.79;49.27;102318.91;1441677;99;21163;-51
2022/10/08 01:51:26;;;;;;;8.48;2.00;;;;;;;18.79;49.31;102324.63;1439817;97;21151;-51
2022/10/08 01:53:52;;;;;;;4.85;2.17;;;;;;;18.77;49.28;102322.05;1437912;99;21601;-51
2022/10/08 01:56:23;;;;;;;4.40;2.15;;;;;;;18.77;49.21;102326.00;1438750;99;21104;-52
2022/10/08 01:59:00;;;;;;;3.98;2.10;;;;;;;18.76;49.34;102315.48;1436451;99;21601;-51
2022/10/08 02:01:53;;;;;;;3.08;1.92;;;;;;;18.73;49.38;102307.67;1415390;100;21173;-51
2022/10/08 02:04:32;;;;;;;3.83;2.15;;;;;;;18.72;49.28;102306.80;1415105;101;21177;-51
2022/10/08 02:07:18;;;;;;;2.72;1.80;;;;;;;18.70;49.43;102311.27;1415033;101;21176;-51
2022/10/08 02:09:55;;;;;;;3.55;2.12;;;;;;;18.70;49.53;102307.31;1413145;101;21164;-52
2022/10/08 02:12:22;;;;;;;3.65;2.27;;;;;;;18.73;49.54;102311.19;1420934;98;21169;-51
2022/10/08 02:14:52;;;;;;;5.62;2.30;;;;;;;18.74;49.43;102310.26;1458649;97;21604;-50
2022/10/08 02:17:29;;;;;;;3.52;2.22;;;;;;;18.74;49.40;102303.66;1458675;97;21152;-51
2022/10/08 02:20:09;;;;;;;4.70;1.95;;;;;;;18.74;49.27;102312.89;1474220;96;21123;-51
2022/10/08 02:22:39;;;;;;;4.03;2.05;;;;;;;18.72;49.19;102305.94;1474429;96;21103;-50
2022/10/08 02:25:23;;;;;;;3.65;1.77;;;;;;;18.67;49.27;102308.70;1474468;96;21119;-51
2022/10/08 02:28:13;;;;;;;3.83;1.85;;;;;;;18.62;48.98;102302.73;1474321;96;21158;-51
2022/10/08 02:30:51;;;;;;;3.95;2.47;;;;;;;18.56;48.92;102305.55;1474409;96;21156;-51
2022/10/08 02:33:34;;;;;;;3.02;2.40;;;;;;;18.53;49.22;102305.63;1474270;96;21103;-51
2022/10/08 02:36:01;;;;;;;3.85;2.02;;;;;;;18.53;49.50;102307.82;1503503;90;21076;-51
2022/10/08 02:38:39;;;;;;;4.92;2.55;;;;;;;18.53;49.66;102307.82;1593982;88;21107;-51
2022/10/08 02:41:07;;;;;;;3.35;2.27;;;;;;;18.52;49.60;102298.65;1594373;88;21073;-51
2022/10/08 02:43:36;;;;;;;4.53;2.50;;;;;;;18.52;49.45;102298.65;1616351;87;21101;-51
2022/10/08 02:46:17;;;;;;;3.20;2.08;;;;;;;18.52;49.55;102299.52;1632622;86;21545;-51
2022/10/08 02:48:51;;;;;;;;;;;;;;;18.53;49.68;102297.72;1642907;86;21072;-51
2022/10/08 02:51:17;;;;;;;3.20;2.55;;;;;;;18.51;49.86;102296.91;1576438;90;20120;-51
2022/10/08 02:53:44;;;;;;;3.15;2.52;;;;;;;18.44;49.88;102299.34;1588165;90;22517;-51
2022/10/08 02:56:38;;;;;;;3.70;2.08;;;;;;;18.34;50.07;102296.53;1585847;90;21095;-51
2022/10/08 02:59:05;;;;;;;2.95;2.25;;;;;;;18.33;50.16;102290.84;1640558;87;21108;-51
2022/10/08 03:01:46;;;;;;;4.95;2.15;;;;;;;18.32;50.33;102298.35;1640758;87;21068;-51
2022/10/08 03:04:26;;;;;;;3.77;2.30;;;;;;;18.30;50.33;102298.37;1566981;91;21083;-51
2022/10/08 03:06:53;;;;;;;4.65;2.50;;;;;;;18.30;50.53;102301.01;1571376;91;21120;-51
2022/10/08 03:09:20;;;;;;;3.47;2.30;;;;;;;18.32;50.56;102298.35;1575414;91;21557;-51
2022/10/08 03:11:46;;;;;;;3.80;2.55;;;;;;;18.33;50.63;102296.11;1576523;90;21145;-51
2022/10/08 03:14:15;;;;;;;5.78;2.37;;;;;;;18.34;50.73;102299.17;1578528;91;21187;-51
2022/10/08 03:16:44;;;;;;;3.70;2.30;;;;;;;18.35;50.74;102300.87;1578939;91;21063;-51
2022/10/08 03:19:14;;;;;;;3.15;2.40;;;;;;;18.36;50.70;102297.35;1576362;91;21509;-52
2022/10/08 03:21:42;;;;;;;7.10;3.05;;;;;;;18.35;50.62;102298.24;1578453;91;21053;-51
2022/10/08 03:24:10;;;;;;;3.62;2.60;;;;;;;18.38;50.76;102296.38;1578890;91;21104;-51
2022/10/08 03:26:38;;;;;;;2.98;2.25;;;;;;;18.40;50.58;102288.44;1578640;91;21041;-51
2022/10/08 03:29:05;;;;;;;7.67;2.58;;;;;;;18.39;50.57;102285.38;1578784;91;21080;-51
2022/10/08 03:31:31;;;;;;;2.92;2.45;;;;;;;18.38;50.78;102290.26;1578620;91;21052;-51
2022/10/08 03:33:58;;;;;;;3.27;2.08;;;;;;;18.37;50.73;102291.16;1578664;89;22620;-51
2022/10/08 03:36:25;;;;;;;4.67;2.10;;;;;;;18.33;50.67;102286.89;1578572;91;21070;-51
2022/10/08 03:38:51;;;;;;;5.25;2.12;;;;;;;18.32;50.87;102289.12;1578615;91;21065;-51
2022/10/08 03:41:18;;;;;;;3.40;2.20;;;;;;;18.30;50.69;102281.72;1599322;88;21192;-51
2022/10/08 03:43:45;;;;;;;2.70;1.95;;;;;;;18.27;50.60;102287.06;1637811;88;21053;-51
2022/10/08 03:46:13;;;;;;;4.95;2.15;;;;;;;18.26;50.56;102285.36;1637939;88;21044;-51
2022/10/08 03:48:40;;;;;;;4.62;2.30;;;;;;;18.26;50.72;102289.31;1680039;83;21060;-51
2022/10/08 03:51:10;;;;;;;3.55;2.02;;;;;;;18.25;50.74;102284.93;1687422;83;21504;-51
2022/10/08 03:53:38;;;;;;;6.47;3.23;;;;;;;18.22;50.75;102283.69;1687778;83;21024;-51
2022/10/08 03:56:08;;;;;;;3.05;2.27;;;;;;;18.20;50.68;102284.19;1688041;83;21024;-51
2022/10/08 03:58:34;;;;;;;4.28;2.77;;;;;;;18.18;50.66;102289.95;1687491;83;21048;-51
2022/10/08 04:01:08;;;;;;;4.42;2.45;;;;;;;18.15;50.70;102280.84;1689587;83;21040;-50
2022/10/08 04:03:35;;;;;;;3.98;2.75;;;;;;;18.14;50.81;102275.14;1686950;83;21504;-51
2022/10/08 04:06:02;;;;;;;3.00;2.17;;;;;;;18.13;50.77;102270.80;1690408;83;21076;-51
2022/10/08 04:08:29;;;;;;;7.95;2.35;;;;;;;18.13;50.75;102276.07;1689206;83;21001;-51
2022/10/08 04:10:56;;;;;;;6.53;2.80;;;;;;;18.10;50.70;102273.51;1687714;84;21036;-51
2022/10/08 04:13:23;;;;;;;4.90;2.35;;;;;;;18.08;50.78;102267.42;1702823;81;21093;-51
2022/10/08 04:15:49;;;;;;;3.83;2.42;;;;;;;18.08;50.71;102264.78;1720621;81;21041;-51
2022/10/08 04:18:16;;;;;;;2.83;2.40;;;;;;;18.11;50.64;102266.03;1719961;81;21037;-51
2022/10/08 04:20:43;;;;;;;4.58;2.40;;;;;;;18.12;50.36;102266.42;1721801;81;21524;-53
2022/10/08 04:23:11;;;;;;;3.05;2.30;;;;;;;18.11;50.25;102269.98;1721910;83;21025;-50
2022/10/08 04:25:37;;;;;;;6.62;2.40;;;;;;;18.09;50.22;102263.89;1721944;81;21041;-51
2022/10/08 04:28:04;;;;;;;5.42;2.17;;;;;;;18.08;50.29;102259.52;1720333;81;21315;-51
2022/10/08 04:30:32;;;;;;;4.40;2.47;;;;;;;18.07;50.38;102258.68;1719001;81;21018;-51
2022/10/08 04:32:58;;;;;;;2.67;2.20;;;;;;;18.08;50.53;102259.52;1713017;81;21033;-52
2022/10/08 04:35:25;;;;;;;5.97;2.92;;;;;;;18.09;50.54;102257.31;1721870;81;21096;-50
2022/10/08 04:37:51;;;;;;;2.87;2.27;;;;;;;18.10;50.46;102257.70;1722130;81;20998;-51
2022/10/08 04:40:17;;;;;;;7.12;3.00;;;;;;;18.11;50.58;102267.34;1720205;81;20990;-50
2022/10/08 04:42:50;;;;;;;2.80;2.27;;;;;;;18.13;50.49;102263.77;1719007;83;21498;-51
2022/10/08 04:45:17;;;;;;;3.50;2.25;;;;;;;18.15;50.42;102263.27;1708552;81;21034;-51
2022/10/08 04:47:44;;;;;;;4.60;2.87;;;;;;;18.17;50.31;102265.84;1721141;81;21512;-51
2022/10/08 04:50:13;;;;;;;4.80;2.62;;;;;;;18.18;50.31;102271.52;1721923;81;21013;-51
2022/10/08 04:52:40;;;;;;;3.25;2.62;;;;;;;18.20;50.18;102275.84;1722315;81;21517;-51
2022/10/08 04:55:08;;;;;;;4.05;2.62;;;;;;;18.23;50.15;102274.89;1712629;81;21081;-51
2022/10/08 04:57:36;;;;;;;4.58;2.55;;;;;;;18.24;50.11;102283.19;1720346;81;21070;-51
2022/10/08 05:00:05;;;;;;;4.33;2.42;;;;;;;18.23;50.02;102273.58;1723612;83;21041;-51
2022/10/08 05:02:32;;;;;;;3.25;2.83;;;;;;;18.22;50.10;102277.97;1722239;81;20977;-51
2022/10/08 05:04:59;;;;;;;5.50;2.58;;;;;;;18.25;50.20;102278.34;1721913;81;21073;-51
2022/10/08 05:07:28;;;;;;;3.52;2.65;;;;;;;18.27;50.14;102269.94;1720006;81;21073;-50
2022/10/08 05:09:56;;;;;;;4.20;2.85;;;;;;;18.29;50.08;102272.08;1718602;81;21026;-50
2022/10/08 05:12:23;;;;;;;5.62;2.70;;;;;;;18.32;50.08;102279.91;1709671;81;21576;-51
2022/10/08 05:14:50;;;;;;;4.60;2.80;;;;;;;18.34;50.00;102275.45;1720690;83;21054;-51
2022/10/08 05:17:17;;;;;;;4.37;2.80;;;;;;;18.36;49.83;102280.22;1721217;81;20990;-51
2022/10/08 05:19:45;;;;;;;4.25;3.17;;;;;;;18.37;49.76;102288.52;1718912;81;21010;-51
2022/10/08 05:22:13;;;;;;;5.08;3.08;;;;;;;18.36;49.80;102283.69;1719187;81;21011;-51
2022/10/08 05:24:39;;;;;;;8.95;3.02;;;;;;;18.38;49.79;102288.95;1716451;81;20990;-51
2022/10/08 05:27:06;;;;;;;9.28;3.17;;;;;;;18.40;49.88;102295.88;1719146;81;21049;-50
2022/10/08 05:29:34;;;;;;;6.25;2.85;;;;;;;18.42;49.86;102287.46;1715454;81;21063;-50
2022/10/08 05:32:01;;;;;;;3.30;2.75;;;;;;;18.44;49.69;102291.43;1717716;83;21088;-51
2022/10/08 05:34:27;;;;;;;3.77;2.80;;;;;;;18.43;49.81;102292.28;1721911;81;21069;-51
2022/10/08 05:36:56;;;;;;;8.40;3.70;;;;;;;18.43;49.89;102294.92;1720060;81;21070;-50
2022/10/08 05:39:23;;;;;;;4.92;3.70;;;;;;;18.44;49.84;102288.31;1718954;81;21478;-51
2022/10/08 05:41:50;;;;;;;4.83;3.52;;;;;;;18.48;49.86;102295.70;1719184;81;21026;-50
2022/10/08 05:44:18;;;;;;;6.78;2.98;;;;;;;18.50;50.08;102292.56;1711909;81;21049;-51
2022/10/08 05:46:45;;;;;;;4.87;2.92;;;;;;;18.53;49.99;102297.72;1720922;83;21081;-51
2022/10/08 05:49:19;;;;;;;3.58;3.20;;;;;;;18.55;50.06;102299.41;1722060;81;21069;-51
2022/10/08 05:51:47;;;;;;;4.17;2.95;;;;;;;18.60;50.09;102296.20;1558969;91;21081;-50
2022/10/08 05:54:14;;;;;;;4.95;3.33;;;;;;;18.77;49.72;102297.44;1559249;92;21145;-51
2022/10/08 05:56:41;;;;;;;5.90;3.37;;;;;;;18.85;49.46;102305.52;1528913;93;21129;-51
2022/10/08 05:59:20;;;;;;;6.70;3.27;;;;;;;18.93;49.28;102300.87;1559101;92;21596;-50
2022/10/08 06:01:47;;;;;;;4.42;3.27;;;;;;;18.93;49.36;102303.50;1534368;93;21041;-51
2022/10/08 06:04:13;;;;;;;4.42;3.42;;;;;;;19.05;49.04;102305.75;1559036;92;21081;-51
2022/10/08 06:06:41;;;;;;;4.37;3.35;;;;;;;19.11;48.97;102302.91;1534321;93;21561;-51
2022/10/08 06:09:10;;;;;;;6.33;3.42;;;;;;;19.22;48.75;102306.07;1558949;92;21601;-51
2022/10/08 06:11:38;;;;;;;4.62;2.75;;;;;;;19.33;48.31;102302.62;1548967;92;21118;-51
2022/10/08 06:14:06;;;;;;;5.20;2.95;;;;;;;19.45;48.18;102303.53;1556659;92;21130;-51
2022/10/08 06:16:33;;;;;;;6.65;3.12;;;;;;;19.57;47.87;102298.76;1558978;92;21580;-50
2022/10/08 06:19:03;;;;;;;6.12;2.80;;;;;;;19.62;47.53;102294.20;1534277;93;21604;-51
2022/10/08 06:21:31;;;;;;;5.55;3.00;;;;;;;19.63;47.39;102298.09;1534379;93;21545;-52
2022/10/08 06:23:59;;;;;;;6.90;3.37;;;;;;;19.63;47.69;102301.19;1534414;92;21077;-51
2022/10/08 06:26:33;;;;;;;5.28;3.37;;;;;;;19.62;47.70;102302.12;1534376;93;21085;-51
2022/10/08 06:29:00;;;;;;;6.22;3.08;;;;;;;19.62;47.53;102296.84;1559239;92;21084;-51
2022/10/08 06:31:26;;;;;;;5.47;3.20;;;;;;;19.61;47.42;102299.05;1556913;92;21593;-51
2022/10/08 06:33:57;;;;;;;6.22;3.08;;;;;;;19.62;47.63;102298.16;1534299;92;21084;-51
2022/10/08 06:36:25;;;;;;;5.72;3.47;;;;;;;19.64;47.65;102298.97;1559062;92;21117;-51
2022/10/08 06:38:55;;;;;;;5.62;3.98;;;;;;;19.63;47.39;102287.98;1534364;93;21104;-51
2022/10/08 06:41:22;;;;;;;7.25;3.67;;;;;;;19.65;47.47;102288.79;1539826;92;21607;-51
2022/10/08 06:43:49;;;;;;;6.28;3.87;;;;;;;19.68;47.32;102292.66;1538865;93;21066;-51
2022/10/08 06:46:16;;;;;;;4.15;3.25;;;;;;;19.69;47.57;102289.09;1539963;92;21087;-51
2022/10/08 06:48:43;;;;;;;9.20;4.45;;;;;;;19.73;47.37;102286.73;1592716;86;21105;-51
2022/10/08 06:51:13;;;;;;;7.47;4.03;;;;;;;19.78;47.28;102287.45;1645633;87;21587;-51
2022/10/08 06:53:40;;;;;;;6.78;3.52;;;;;;;19.81;47.16;102285.55;1645442;86;21006;-51
2022/10/08 06:56:11;;;;;;;8.83;3.95;;;;;;;19.82;46.99;102285.97;1645422;86;21077;-51
2022/10/08 06:58:37;;;;;;;5.42;4.20;;;;;;;19.85;46.87;102288.94;1645544;86;21182;-51
2022/10/08 07:01:07;;;;;;;8.03;4.10;;;;;;;19.85;46.76;102287.62;1645545;86;21575;-51
2022/10/08 07:03:34;;;;;;;4.20;3.80;;;;;;;19.86;46.86;102288.04;1634226;87;21026;-51
2022/10/08 07:06:03;;;;;;;7.75;4.05;;;;;;;19.86;46.91;102280.11;1635891;87;21084;-51
2022/10/08 07:08:30;;;;;;;5.10;4.22;;;;;;;19.88;47.20;102280.47;1635437;87;21064;-51
2022/10/08 07:11:17;;;;;;;6.20;3.60;;;;;;;19.91;47.38;102284.75;1632102;87;21238;-51
2022/10/08 07:13:44;;;;;;;6.58;3.72;;;;;;;19.93;47.56;102284.23;1624869;87;21611;-51
2022/10/08 07:16:20;;;;;;;6.37;4.10;;;;;;;19.99;47.72;102280.08;1630994;87;21087;-51
2022/10/08 07:18:49;;;;;;;6.37;3.75;;;;;;;20.04;47.98;102276.34;1549141;91;21081;-51
2022/10/08 07:21:18;;;;;;;6.58;4.10;;;;;;;20.12;47.78;102272.95;1563897;91;21145;-51
2022/10/08 07:23:45;;;;;;;4.95;3.80;;;;;;;20.17;47.63;102271.47;1560375;91;21075;-50
2022/10/08 07:26:18;;;;;;;7.37;4.65;;;;;;;20.21;47.67;102267.37;1556867;91;21629;-51
2022/10/08 07:28:52;;;;;;;7.10;4.10;;;;;;;20.27;47.51;102260.98;1537393;92;21138;-51
2022/10/08 07:31:21;;;;;;;7.97;4.20;;;;;;;20.33;47.21;102258.09;1536108;92;21165;-51
2022/10/08 07:33:48;;;;;;;4.65;3.90;;;;;;;20.39;47.13;102262.28;1554279;91;21099;-51
2022/10/08 07:36:18;;;;;;;7.35;4.53;;;;;;;20.41;46.89;102259.98;1551937;91;21097;-51
2022/10/08 07:38:47;;;;;;;5.67;3.60;;;;;;;20.41;47.36;102258.66;1504052;94;21672;-51
2022/10/08 07:41:13;;;;;;;10.72;4.15;;;;;;;20.40;47.74;102260.92;1519160;93;21105;-51
2022/10/08 07:43:42;;;;;;;5.05;4.08;;;;;;;20.40;47.97;102255.63;1490116;94;21033;-51
2022/10/08 07:46:10;;;;;;;6.33;4.10;;;;;;;20.41;48.22;102253.83;1510143;93;21105;-51
2022/10/08 07:48:38;;;;;;;11.50;4.78;;;;;;;20.43;48.22;102254.17;1491600;94;21569;-51
2022/10/08 07:51:12;;;;;;;7.17;4.58;;;;;;;20.47;48.38;102245.66;1514092;93;21682;-51
2022/10/08 07:53:39;;;;;;;5.72;4.25;;;;;;;20.51;48.39;102238.87;1464241;98;21173;-51
2022/10/08 07:56:07;;;;;;;6.60;4.70;;;;;;;20.56;48.00;102243.98;1499208;94;21242;-51
2022/10/08 07:58:33;;;;;;;5.47;4.33;;;;;;;20.59;47.98;102239.42;1501015;94;21073;-51
2022/10/08 08:01:04;;;;;;;5.87;3.98;;;;;;;20.63;47.82;102234.41;1493268;94;21549;-51
2022/10/08 08:03:31;;;;;;;6.80;4.60;;;;;;;20.65;47.79;102237.02;1502607;94;21158;-51
2022/10/08 08:06:06;;;;;;;7.35;4.70;;;;;;;20.64;47.94;102232.63;1502099;94;21101;-51
2022/10/08 08:08:34;;;;;;;6.55;4.42;;;;;;;20.62;48.11;102231.38;1498197;94;21058;-51
2022/10/08 08:11:03;;;;;;;6.17;4.78;;;;;;;20.62;48.10;102231.38;1506676;94;21121;-51
2022/10/08 08:13:32;;;;;;;6.05;4.65;;;;;;;20.65;48.42;102229.92;1507201;94;21166;-51
2022/10/08 08:16:02;;;;;;;8.00;4.72;;;;;;;20.68;48.09;102211.75;1556395;90;21076;-52
2022/10/08 08:18:31;;;;;;;6.10;4.08;;;;;;;20.70;48.30;102209.90;1588039;89;21108;-51
2022/10/08 08:21:02;;;;;;;8.03;4.30;;;;;;;20.74;48.77;102199.14;1587622;89;21093;-51
2022/10/08 08:23:35;;;;;;;6.40;4.40;;;;;;;20.81;48.94;102205.88;1496805;95;21049;-52
2022/10/08 08:26:10;;;;;;;7.20;4.58;;;;;;;20.91;49.03;102201.95;1501938;95;21116;-52
2022/10/08 08:28:38;;;;;;;5.12;4.22;;;;;;;21.01;48.57;102200.64;1432353;99;21208;-51
2022/10/08 08:31:13;;;;;;;10.35;4.40;;;;;;;21.08;48.30;102200.41;1432158;99;21132;-51
2022/10/08 08:33:41;;;;;;;7.70;4.53;;;;;;;21.13;48.22;102195.77;1374437;103;21612;-51
2022/10/08 08:36:08;;;;;;;8.03;4.47;;;;;;;21.19;48.23;102191.53;1355533;104;21167;-51
2022/10/08 08:38:36;;;;;;;7.90;5.22;;;;;;;21.22;48.05;102195.39;1352359;104;21142;-51
2022/10/08 08:41:52;;;;;;;6.22;4.22;;;;;;;21.26;48.11;102195.66;1344411;105;21243;-51
2022/10/08 08:44:31;;;;;;;5.70;4.58;;;;;;;21.30;48.21;102198.11;1339107;105;21165;-51
2022/10/08 08:47:20;;;;;;;8.98;5.05;;;;;;;21.36;48.09;102196.97;1324593;106;21676;-51
2022/10/08 08:49:51;;;;;;;8.03;5.15;;;;;;;21.40;48.17;102203.39;1340576;105;21252;-52
2022/10/08 08:52:28;;;;;;;7.92;4.10;;;;;;;21.46;48.25;102199.61;1348230;104;21120;-52
2022/10/08 08:54:54;;;;;;;10.68;5.05;;;;;;;21.50;48.17;102196.77;1347150;104;21202;-50
2022/10/08 08:57:41;;;;;;;6.72;4.67;;;;;;;21.55;48.23;102192.59;1346596;104;21160;-50
2022/10/08 09:00:21;;;;;;;7.85;4.67;;;;;;;21.61;48.25;102194.51;1323117;106;21227;-52
2022/10/08 09:03:04;;;;;;;8.20;5.28;;;;;;;21.68;47.98;102193.74;1321465;108;21125;-51
2022/10/08 09:05:35;;;;;;;7.70;4.40;;;;;;;21.74;47.98;102190.36;1321239;106;21079;-51
2022/10/08 09:08:25;;;;;;;5.92;5.05;;;;;;;21.79;47.71;102191.02;1320937;108;21724;-51
2022/10/08 09:11:00;;;;;;;5.97;4.92;;;;;;;21.83;47.75;102185.14;1291973;107;21223;-51
2022/10/08 09:13:42;;;;;;;7.90;6.05;;;;;;;21.88;47.65;102191.56;1287154;110;21203;-51
2022/10/08 09:16:13;;;;;;;8.48;6.08;;;;;;;21.88;47.66;102188.45;1299556;108;21177;-52
2022/10/08 09:18:46;;;;;;;5.12;4.50;;;;;;;21.88;47.52;102182.28;1287076;111;21157;-51
2022/10/08 09:21:13;;;;;;;5.70;4.53;;;;;;;21.91;47.56;102180.83;1343579;106;21980;-51
2022/10/08 09:23:41;;;;;;;6.47;4.60;;;;;;;21.95;47.52;102177.11;1360001;104;21137;-52
2022/10/08 09:26:16;;;;;;;10.32;5.08;;;;;;;21.96;47.41;102177.03;1375550;104;21159;-51
2022/10/08 09:28:48;;;;;;;4.83;4.00;;;;;;;21.98;47.47;102175.16;1358966;105;21128;-52
2022/10/08 09:31:37;;;;;;;7.58;5.22;;;;;;;22.02;47.54;102171.44;1350644;102;21119;-51
2022/10/08 09:34:15;;;;;;;7.15;5.28;;;;;;;22.07;47.55;102170.73;1390038;103;21120;-51
2022/10/08 09:36:48;;;;;;;6.12;4.80;;;;;;;22.12;47.32;102164.77;1398785;98;21114;-51
2022/10/08 09:39:26;;;;;;;8.83;4.97;;;;;;;22.16;47.39;102157.06;1479457;96;21143;-51
2022/10/08 09:42:13;;;;;;;7.33;5.20;;;;;;;22.19;47.22;102155.61;1484428;96;21609;-50
2022/10/08 09:44:49;;;;;;;6.33;4.72;;;;;;;22.22;47.00;102152.79;1495447;93;21104;-50
2022/10/08 09:47:20;;;;;;;5.00;4.42;;;;;;;22.25;47.00;102139.40;1527129;91;21191;-50
2022/10/08 09:50:03;;;;;;;6.42;4.80;;;;;;;22.39;46.72;102132.09;1564869;89;21034;-50
2022/10/08 09:52:30;;;;;;;5.70;4.45;;;;;;;22.44;46.36;102125.61;1561240;90;21037;-51
2022/10/08 09:55:05;;;;;;;8.05;4.37;;;;;;;22.48;45.96;102120.55;1577830;89;21110;-50
2022/10/08 09:57:31;;;;;;;8.80;4.95;;;;;;;22.54;46.07;102116.75;1564305;90;21541;-51
2022/10/08 10:00:00;;;;;;;7.72;5.05;;;;;;;22.43;46.53;102119.93;1527248;92;21089;-50
2022/10/08 10:02:35;;;;;;;6.67;4.75;;;;;;;22.46;46.62;102121.58;1564357;90;21114;-51
2022/10/08 10:05:19;;;;;;;8.18;4.60;;;;;;;22.50;46.54;102105.90;1511550;93;21116;-51
2022/10/08 10:07:46;;;;;;;6.40;4.20;;;;;;;22.56;46.32;102104.27;1503055;94;21634;-51
2022/10/08 10:10:23;;;;;;;7.35;4.30;;;;;;;22.61;45.67;102103.12;1511853;93;21109;-51
2022/10/08 10:12:57;;;;;;;5.12;4.45;;;;;;;22.65;45.75;102101.16;1467392;97;21170;-51
2022/10/08 10:15:33;;;;;;;7.40;5.33;;;;;;;22.72;45.99;102091.10;1441672;98;21153;-51
2022/10/08 10:18:04;;;;;;;7.35;4.47;;;;;;;22.76;46.24;102091.33;1438118;98;21078;-51
2022/10/08 10:20:36;;;;;;;5.92;4.67;;;;;;;22.81;46.28;102078.23;1430794;99;21600;-51
2022/10/08 10:23:19;;;;;;;7.87;5.08;;;;;;;22.87;45.85;102070.42;1408628;100;21646;-51
2022/10/08 10:25:53;;;;;;;5.37;4.05;;;;;;;22.92;44.98;102064.38;1430348;100;21114;-52
2022/10/08 10:28:34;;;;;;;11.83;6.17;;;;;;;22.96;44.66;102065.94;1410820;101;21676;-51
2022/10/08 10:31:05;;;;;;;13.15;6.58;;;;;;;22.98;44.21;102058.78;1415909;101;21171;-51
2022/10/08 10:33:36;;;;;;;12.23;6.17;;;;;;;23.02;44.33;102058.52;1414703;101;21129;-51
2022/10/08 10:36:07;;;;;;;11.15;5.10;;;;;;;23.08;43.87;102050.72;1417749;100;21630;-51
2022/10/08 10:38:39;;;;;;;11.63;5.42;;;;;;;23.12;43.68;102050.94;1442791;99;21107;-51
2022/10/08 10:41:29;;;;;;;10.40;6.08;;;;;;;23.17;43.42;102048.88;1442167;99;21109;-51
2022/10/08 10:44:15;;;;;;;6.67;4.90;;;;;;;23.22;42.89;102045.52;1442205;99;21173;-51
2022/10/08 10:46:54;;;;;;;7.60;4.70;;;;;;;23.26;42.51;102043.09;1442496;99;21125;-50
2022/10/08 10:49:23;;;;;;;6.72;4.95;;;;;;;23.30;42.53;102040.65;1435191;99;21142;-51
2022/10/08 10:52:33;;;;;;;7.72;5.08;;;;;;;23.35;42.68;102041.27;1438687;99;21453;-52
2022/10/08 10:55:17;;;;;;;6.17;4.67;;;;;;;23.39;42.68;102038.83;1439896;99;21665;-51
2022/10/08 10:58:14;;;;;;;5.30;4.10;;;;;;;23.43;42.17;102033.77;1443384;99;21700;-51
2022/10/08 11:00:58;;;;;;;6.80;3.98;;;;;;;23.46;42.25;102024.28;1397010;101;21160;-51
2022/10/08 11:03:48;;;;;;;7.15;4.20;;;;;;;23.47;42.04;102010.08;1416693;100;21144;-52
2022/10/08 11:06:36;;;;;;;5.90;3.90;;;;;;;23.47;42.06;102008.75;1413800;100;21132;-51
2022/10/08 11:09:32;;;;;;;6.95;4.08;;;;;;;23.49;42.14;102013.50;1447667;96;21647;-51
2022/10/08 11:12:04;;;;;;;4.08;3.58;;;;;;;23.51;41.90;101997.47;1517483;92;21017;-51
2022/10/08 11:14:53;;;;;;;4.12;3.70;;;;;;;23.53;41.61;101993.80;1541799;91;21117;-51
2022/10/08 11:17:39;;;;;;;5.85;4.05;;;;;;;23.55;41.36;101987.05;1572797;89;21143;-53
2022/10/08 11:20:47;;;;;;;4.85;3.75;;;;;;;23.56;41.22;101980.31;1586866;89;21048;-50
2022/10/08 11:23:24;;;;;;;4.60;3.52;;;;;;;23.57;41.19;101968.77;1595094;89;21068;-51
2022/10/08 11:25:57;;;;;;;5.10;3.83;;;;;;;23.57;41.28;101965.24;1590477;89;21096;-50
2022/10/08 11:29:06;;;;;;;7.58;3.92;;;;;;;23.59;41.30;101966.88;1604594;89;21052;-49
2022/10/08 11:31:42;;;;;;;6.05;3.92;;;;;;;23.61;41.34;101976.95;1594633;89;21099;-51
2022/10/08 11:34:29;;;;;;;4.85;3.77;;;;;;;23.65;41.19;101967.85;1597875;89;21524;-54
2022/10/08 11:37:06;;;;;;;4.75;3.87;;;;;;;23.67;41.16;101966.42;1594921;89;21068;-50
2022/10/08 11:39:48;;;;;;;5.05;3.87;;;;;;;23.69;41.25;101960.09;1575974;89;21085;-52
2022/10/08 11:42:35;;;;;;;4.97;3.95;;;;;;;23.71;41.12;101956.00;1458755;98;21127;-52
2022/10/08 11:45:27;;;;;;;4.40;3.62;;;;;;;23.72;41.13;101946.61;1460825;98;21102;-50
2022/10/08 11:47:57;;;;;;;6.40;3.92;;;;;;;23.74;41.03;101951.36;1460919;98;21126;-55
2022/10/08 11:50:36;;;;;;;6.87;3.98;;;;;;;23.75;40.92;101949.10;1458569;98;21090;-52
2022/10/08 11:53:14;;;;;;;4.53;3.72;;;;;;;23.76;40.79;101952.13;1437902;98;21167;-51